createdAt,value
2017-09-14T00:00:37.376Z,73.80
2017-09-14T00:03:06.257Z,74.50
2017-09-14T00:05:35.121Z,74.60
2017-09-14T00:08:03.979Z,74.50
2017-09-14T00:10:33.198Z,74.70
2017-09-14T00:13:02.042Z,75.50
2017-09-14T00:15:31.699Z,75.70
2017-09-14T00:18:00.490Z,75.70
2017-09-14T00:20:29.326Z,76.70
2017-09-14T00:22:59.039Z,77.00
2017-09-14T00:25:28.595Z,77.00
2017-09-14T00:27:57.456Z,77.00
2017-09-14T00:30:26.509Z,77.00
2017-09-14T00:32:56.118Z,77.40
2017-09-14T00:35:25.679Z,76.30
2017-09-14T00:37:54.817Z,76.30
2017-09-14T00:40:24.841Z,76.90
2017-09-14T00:42:53.753Z,76.60
2017-09-14T00:45:23.010Z,76.80
2017-09-14T00:47:52.634Z,78.10
2017-09-14T00:50:22.298Z,77.80
2017-09-14T00:52:51.818Z,77.80
2017-09-14T00:55:20.900Z,77.70
2017-09-14T00:57:49.762Z,77.90
2017-09-14T01:00:19.084Z,77.90
2017-09-14T01:02:47.936Z,77.30
2017-09-14T01:05:16.718Z,77.40
2017-09-14T01:07:45.732Z,77.30
2017-09-14T01:10:15.073Z,78.00
2017-09-14T01:12:44.346Z,78.70
2017-09-14T01:15:13.289Z,78.80
2017-09-14T01:17:42.884Z,78.10
2017-09-14T01:20:11.842Z,78.00
2017-09-14T01:22:40.751Z,77.90
2017-09-14T01:25:10.840Z,78.70
2017-09-14T01:27:39.936Z,78.70
2017-09-14T01:30:09.032Z,78.80
2017-09-14T01:32:38.118Z,79.20
2017-09-14T01:35:07.058Z,79.00
2017-09-14T01:37:36.774Z,78.80
2017-09-14T01:40:05.721Z,78.70
2017-09-14T01:42:35.118Z,79.20
2017-09-14T01:45:04.212Z,79.30
2017-09-14T01:47:33.177Z,79.60
2017-09-14T01:50:02.309Z,78.80
2017-09-14T01:52:31.136Z,78.20
2017-09-14T01:55:00.524Z,78.30
2017-09-14T01:57:29.467Z,78.40
2017-09-14T01:59:58.377Z,79.30
2017-09-14T02:02:27.468Z,79.40
2017-09-14T02:04:56.554Z,79.20
2017-09-14T02:07:25.818Z,79.40
2017-09-14T02:09:54.684Z,79.60
2017-09-14T02:12:23.638Z,79.40
2017-09-14T02:14:52.497Z,79.00
2017-09-14T02:17:21.615Z,79.20
2017-09-14T02:19:50.439Z,78.80
2017-09-14T02:22:19.383Z,78.80
2017-09-14T02:24:49.706Z,79.90
2017-09-14T02:27:18.800Z,80.40
2017-09-14T02:29:47.893Z,80.80
2017-09-14T02:32:17.123Z,81.20
2017-09-14T02:34:46.872Z,80.80
2017-09-14T02:37:16.198Z,80.80
2017-09-14T02:39:45.071Z,80.30
2017-09-14T02:42:13.979Z,80.40
2017-09-14T02:44:43.094Z,80.60
2017-09-14T02:47:12.451Z,80.40
2017-09-14T02:49:41.738Z,80.20
2017-09-14T02:52:10.752Z,79.80
2017-09-14T02:54:39.673Z,79.80
2017-09-14T02:57:08.530Z,80.10
2017-09-14T02:59:37.500Z,80.40
2017-09-14T03:02:06.320Z,80.50
2017-09-14T03:04:35.162Z,80.80
2017-09-14T03:07:04.490Z,80.50
2017-09-14T03:09:33.405Z,80.70
2017-09-14T03:12:02.349Z,80.80
2017-09-14T03:14:31.298Z,81.10
2017-09-14T03:17:00.272Z,80.70
2017-09-14T03:19:29.582Z,80.30
2017-09-14T03:21:58.717Z,80.40
2017-09-14T03:24:27.830Z,80.30
2017-09-14T03:26:56.975Z,80.10
2017-09-14T03:29:25.714Z,79.50
2017-09-14T03:31:54.928Z,79.30
2017-09-14T03:34:23.938Z,79.10
2017-09-14T03:36:53.060Z,79.20
2017-09-14T03:39:22.862Z,79.70
2017-09-14T03:41:52.029Z,79.70
2017-09-14T03:44:21.260Z,79.10
2017-09-14T03:46:50.443Z,79.70
2017-09-14T03:49:19.513Z,80.20
2017-09-14T03:51:48.473Z,80.10
2017-09-14T03:54:17.444Z,79.20
2017-09-14T03:56:46.429Z,79.00
2017-09-14T03:59:16.299Z,79.10
2017-09-14T04:01:46.148Z,79.10
2017-09-14T04:04:15.867Z,78.60
2017-09-14T04:06:45.656Z,78.80
2017-09-14T04:09:14.601Z,78.70
2017-09-14T04:11:43.924Z,79.40
2017-09-14T04:14:13.190Z,79.00
2017-09-14T04:16:42.090Z,78.90
2017-09-14T04:19:10.964Z,78.90
2017-09-14T04:21:40.255Z,79.30
2017-09-14T04:24:09.266Z,79.10
2017-09-14T04:26:38.321Z,79.60
2017-09-14T04:29:08.265Z,79.50
2017-09-14T04:31:37.273Z,79.50
2017-09-14T04:34:06.373Z,79.20
2017-09-14T04:36:35.190Z,79.40
2017-09-14T04:39:04.302Z,79.00
2017-09-14T04:41:33.881Z,78.40
2017-09-14T04:44:03.848Z,78.10
2017-09-14T04:46:32.776Z,78.10
2017-09-14T04:49:01.579Z,79.10
2017-09-14T04:51:31.516Z,78.50
2017-09-14T04:54:01.394Z,78.20
2017-09-14T04:56:30.422Z,78.20
2017-09-14T04:59:00.277Z,78.50
2017-09-14T05:01:29.217Z,78.50
2017-09-14T05:03:59.493Z,77.90
2017-09-14T05:06:28.434Z,77.90
2017-09-14T05:08:58.229Z,77.70
2017-09-14T05:11:27.207Z,77.70
2017-09-14T05:13:56.142Z,77.10
2017-09-14T05:16:25.362Z,77.20
2017-09-14T05:18:54.176Z,77.50
2017-09-14T05:21:23.194Z,78.00
2017-09-14T05:23:53.201Z,77.90
2017-09-14T05:26:23.109Z,78.50
2017-09-14T05:28:52.008Z,78.50
2017-09-14T05:31:22.042Z,77.40
2017-09-14T05:33:51.066Z,77.30
2017-09-14T05:36:20.015Z,77.50
2017-09-14T05:38:49.820Z,77.20
2017-09-14T05:41:19.642Z,77.90
2017-09-14T05:43:49.798Z,78.30
2017-09-14T05:46:19.137Z,78.30
2017-09-14T05:48:48.147Z,78.90
2017-09-14T05:51:17.938Z,79.20
2017-09-14T05:53:46.880Z,79.20
2017-09-14T05:56:15.893Z,79.00
2017-09-14T05:58:45.343Z,79.80
2017-09-14T06:01:15.306Z,79.30
2017-09-14T06:03:44.363Z,79.30
2017-09-14T06:06:13.712Z,79.50
2017-09-14T06:08:43.027Z,79.30
2017-09-14T06:11:11.882Z,79.50
2017-09-14T06:13:40.731Z,79.80
2017-09-14T06:16:10.386Z,80.40
2017-09-14T06:18:39.598Z,80.40
2017-09-14T06:21:08.479Z,80.10
2017-09-14T06:23:37.289Z,79.50
2017-09-14T06:26:06.938Z,80.50
2017-09-14T06:28:35.803Z,80.60
2017-09-14T06:31:06.027Z,79.70
2017-09-14T06:33:35.913Z,80.50
2017-09-14T06:36:04.834Z,80.50
2017-09-14T06:38:34.057Z,80.50
2017-09-14T06:41:03.006Z,80.60
2017-09-14T06:43:32.733Z,80.40
2017-09-14T06:46:01.649Z,80.30
2017-09-14T06:48:30.447Z,79.40
2017-09-14T06:50:59.747Z,79.50
2017-09-14T06:53:28.547Z,79.80
2017-09-14T06:55:58.310Z,79.00
2017-09-14T06:58:27.428Z,79.20
2017-09-14T07:00:56.371Z,79.30
2017-09-14T07:03:25.921Z,78.10
2017-09-14T07:05:54.969Z,77.70
2017-09-14T07:08:24.541Z,77.60
2017-09-14T07:10:53.453Z,77.60
2017-09-14T07:13:23.079Z,78.20
2017-09-14T07:15:52.661Z,78.30
2017-09-14T07:18:21.521Z,78.20
2017-09-14T07:20:50.832Z,79.10
2017-09-14T07:23:19.734Z,78.70
2017-09-14T07:25:48.669Z,78.20
2017-09-14T07:28:17.790Z,78.20
2017-09-14T07:30:46.827Z,78.20
2017-09-14T07:33:17.186Z,80.20
2017-09-14T07:35:46.247Z,80.10
2017-09-14T07:38:16.657Z,80.50
2017-09-14T07:40:45.866Z,80.40
2017-09-14T07:43:15.654Z,80.80
2017-09-14T07:45:44.746Z,80.70
2017-09-14T07:48:14.073Z,79.70
2017-09-14T07:50:43.069Z,79.90
2017-09-14T07:53:12.702Z,80.00
2017-09-14T07:55:41.728Z,79.90
2017-09-14T07:58:10.945Z,79.50
2017-09-14T08:00:39.979Z,80.30
2017-09-14T08:03:09.258Z,79.80
2017-09-14T08:05:39.070Z,79.60
2017-09-14T08:08:08.946Z,79.50
2017-09-14T08:10:37.823Z,79.60
2017-09-14T08:13:06.778Z,79.20
2017-09-14T08:15:35.988Z,77.90
2017-09-14T08:18:04.889Z,76.80
2017-09-14T08:20:33.799Z,77.30
2017-09-14T08:23:02.989Z,77.50
2017-09-14T08:25:31.892Z,76.50
2017-09-14T08:28:00.861Z,71.70
2017-09-14T08:30:29.849Z,72.50
2017-09-14T08:32:58.931Z,71.60
2017-09-14T08:35:28.226Z,71.10
2017-09-14T08:37:57.254Z,69.60
2017-09-14T08:40:26.433Z,67.80
2017-09-14T08:42:55.476Z,68.70
2017-09-14T08:45:25.329Z,68.80
2017-09-14T08:47:54.353Z,68.70
2017-09-14T08:50:23.409Z,69.50
2017-09-14T08:52:52.429Z,70.40
2017-09-14T08:55:21.397Z,69.20
2017-09-14T08:57:50.521Z,68.60
2017-09-14T09:00:19.618Z,70.40
2017-09-14T09:02:48.628Z,68.50
2017-09-14T09:05:18.124Z,69.50
2017-09-14T09:07:47.378Z,69.00
2017-09-14T09:10:17.516Z,68.20
2017-09-14T09:12:46.352Z,68.20
2017-09-14T09:15:15.201Z,65.40
2017-09-14T09:17:44.662Z,66.10
2017-09-14T09:20:13.900Z,66.70
2017-09-14T09:22:42.942Z,66.60
2017-09-14T09:25:12.731Z,66.20
2017-09-14T09:27:41.638Z,66.20
2017-09-14T09:30:11.390Z,65.60
2017-09-14T09:32:40.200Z,65.60
2017-09-14T09:35:09.260Z,63.30
2017-09-14T09:37:38.363Z,63.30
2017-09-14T09:40:07.385Z,62.40
2017-09-14T09:42:36.326Z,61.90
2017-09-14T09:45:05.458Z,62.90
2017-09-14T09:47:34.742Z,61.90
2017-09-14T09:50:03.799Z,60.70
2017-09-14T09:52:33.672Z,59.80
2017-09-14T09:55:02.771Z,59.70
2017-09-14T09:57:31.848Z,58.60
2017-09-14T10:00:00.998Z,60.30
2017-09-14T10:02:30.848Z,59.60
2017-09-14T10:04:59.695Z,59.60
2017-09-14T10:07:29.542Z,61.50
2017-09-14T10:09:58.378Z,61.60
2017-09-14T10:12:27.321Z,61.30
2017-09-14T10:14:56.276Z,61.20
2017-09-14T10:17:25.885Z,60.10
2017-09-14T10:19:55.663Z,60.80
2017-09-14T10:22:24.748Z,60.80
2017-09-14T10:24:53.758Z,61.30
2017-09-14T10:27:22.705Z,63.20
2017-09-14T10:29:51.949Z,66.30
2017-09-14T10:32:21.020Z,64.30
2017-09-14T10:34:50.328Z,62.80
2017-09-14T10:37:19.373Z,60.90
2017-09-14T10:39:48.319Z,62.00
2017-09-14T10:42:17.623Z,60.00
2017-09-14T10:44:46.602Z,61.60
2017-09-14T10:47:15.707Z,61.50
2017-09-14T10:49:44.724Z,64.40
2017-09-14T10:52:13.710Z,64.10
2017-09-14T10:54:42.718Z,69.80
2017-09-14T10:57:11.697Z,79.00
2017-09-14T10:59:41.275Z,87.50
2017-09-14T11:02:10.128Z,87.60
2017-09-14T11:04:39.059Z,89.30
2017-09-14T11:08:37.414Z,90.50
2017-09-14T11:11:06.338Z,88.30
2017-09-14T11:13:36.074Z,89.00
2017-09-14T11:16:05.046Z,89.00
2017-09-14T11:18:35.930Z,87.30
2017-09-14T11:21:05.486Z,87.20
2017-09-14T11:23:35.123Z,88.30
2017-09-14T11:26:04.278Z,88.30
2017-09-14T11:28:33.081Z,86.60
2017-09-14T11:31:02.830Z,86.80
2017-09-14T11:33:31.927Z,86.90
2017-09-14T11:36:01.068Z,84.20
2017-09-14T11:38:31.097Z,81.20
2017-09-14T11:41:00.840Z,80.70
2017-09-14T11:43:30.913Z,80.60
2017-09-14T11:46:00.999Z,79.60
2017-09-14T11:48:30.253Z,80.30
2017-09-14T11:51:00.375Z,67.70
2017-09-14T11:53:29.515Z,67.70
2017-09-14T11:55:58.952Z,64.90
2017-09-14T11:58:28.918Z,62.50
2017-09-14T12:00:58.015Z,62.50
2017-09-14T12:03:27.060Z,65.20
2017-09-14T12:05:55.986Z,63.00
2017-09-14T12:08:26.109Z,60.20
2017-09-14T12:10:55.802Z,60.00
2017-09-14T12:13:25.791Z,59.50
2017-09-14T12:15:55.626Z,58.10
2017-09-14T12:18:25.477Z,55.00
2017-09-14T12:20:54.647Z,55.00
2017-09-14T12:23:23.605Z,55.20
2017-09-14T12:25:52.441Z,55.90
2017-09-14T12:28:21.307Z,53.00
2017-09-14T12:30:51.057Z,53.70
2017-09-14T12:33:19.989Z,53.70
2017-09-14T12:35:48.796Z,52.40
2017-09-14T12:38:18.419Z,73.70
2017-09-14T12:40:47.246Z,73.20
2017-09-14T12:43:16.171Z,84.90
2017-09-14T12:45:45.806Z,84.90
2017-09-14T12:48:15.254Z,85.10
2017-09-14T12:50:44.710Z,84.70
2017-09-14T12:53:13.720Z,86.30
2017-09-14T12:55:42.806Z,84.70
2017-09-14T12:58:11.946Z,89.30
2017-09-14T13:00:41.099Z,85.60
2017-09-14T13:03:10.547Z,87.40
2017-09-14T13:05:40.358Z,82.50
2017-09-14T13:08:09.352Z,82.50
2017-09-14T13:10:39.310Z,75.90
2017-09-14T13:13:08.349Z,76.00
2017-09-14T13:15:37.578Z,77.60
2017-09-14T13:18:07.426Z,75.80
2017-09-14T13:20:37.239Z,77.90
2017-09-14T13:23:06.175Z,77.80
2017-09-14T13:25:35.814Z,77.00
2017-09-14T13:28:05.195Z,76.90
2017-09-14T13:30:35.240Z,73.20
2017-09-14T13:33:04.846Z,72.80
2017-09-14T13:35:34.499Z,72.50
2017-09-14T13:38:03.419Z,75.80
2017-09-14T13:40:33.102Z,76.50
2017-09-14T13:43:02.170Z,76.60
2017-09-14T13:45:31.660Z,77.70
2017-09-14T13:48:00.790Z,75.10
2017-09-14T13:50:30.080Z,76.10
2017-09-14T13:52:59.202Z,76.30
2017-09-14T13:55:31.405Z,72.10
2017-09-14T13:58:00.551Z,72.20
2017-09-14T14:00:30.405Z,69.50
2017-09-14T14:02:59.923Z,69.50
2017-09-14T14:05:28.763Z,69.50
2017-09-14T14:07:58.603Z,66.60
2017-09-14T14:10:27.546Z,66.60
2017-09-14T14:12:56.675Z,66.30
2017-09-14T14:15:27.270Z,66.60
2017-09-14T14:17:56.436Z,66.70
2017-09-14T14:20:25.326Z,68.60
2017-09-14T14:22:54.214Z,66.90
2017-09-14T14:25:23.025Z,69.50
2017-09-14T14:27:52.283Z,68.00
2017-09-14T14:30:21.197Z,67.60
2017-09-14T14:32:50.261Z,67.40
2017-09-14T14:35:19.236Z,67.80
2017-09-14T14:37:48.289Z,68.30
2017-09-14T14:40:17.451Z,67.20
2017-09-14T14:42:46.679Z,67.00
2017-09-14T14:45:16.163Z,70.00
2017-09-14T14:47:45.588Z,69.00
2017-09-14T14:50:14.742Z,68.20
2017-09-14T14:52:43.721Z,70.00
2017-09-14T14:55:12.870Z,69.70
2017-09-14T14:57:42.284Z,71.40
2017-09-14T15:00:11.445Z,71.80
2017-09-14T15:02:40.500Z,72.80
2017-09-14T15:05:10.170Z,73.80
2017-09-14T15:07:39.353Z,74.90
2017-09-14T15:10:11.352Z,75.70
2017-09-14T15:12:45.645Z,76.80
2017-09-14T15:15:18.294Z,76.70
2017-09-14T15:17:50.737Z,75.00
2017-09-14T15:20:22.148Z,80.20
2017-09-14T15:22:52.901Z,80.20
2017-09-14T15:25:25.421Z,86.60
2017-09-14T15:27:58.417Z,86.60
2017-09-14T15:30:28.630Z,88.40
2017-09-14T15:32:59.436Z,90.00
2017-09-14T15:35:29.345Z,88.00
2017-09-14T15:37:58.354Z,90.30
2017-09-14T15:42:35.724Z,91.70
2017-09-14T15:46:10.465Z,92.20
2017-09-14T15:48:43.744Z,92.20
2017-09-14T15:52:17.909Z,94.10
2017-09-14T15:54:46.919Z,94.10
2017-09-14T15:57:16.071Z,93.80
2017-09-14T15:59:45.201Z,94.20
2017-09-14T16:02:14.519Z,94.20
2017-09-14T16:04:43.796Z,93.90
2017-09-14T16:07:12.755Z,93.50
2017-09-14T16:09:41.677Z,93.90
2017-09-14T16:12:11.397Z,93.80
2017-09-14T16:14:40.276Z,93.80
2017-09-14T16:17:09.276Z,94.20
2017-09-14T16:19:38.279Z,94.30
2017-09-14T16:22:07.534Z,94.70
2017-09-14T16:24:36.731Z,94.80
2017-09-14T16:27:05.611Z,94.40
2017-09-14T16:29:34.481Z,94.20
2017-09-14T16:32:03.372Z,93.80
2017-09-14T16:34:33.471Z,94.30
2017-09-14T16:37:03.080Z,94.30
2017-09-14T16:39:32.877Z,94.30
2017-09-14T16:42:01.864Z,94.30
2017-09-14T16:44:30.750Z,94.60
2017-09-14T16:46:59.745Z,94.30
2017-09-14T16:49:28.658Z,94.30
2017-09-14T16:51:58.506Z,94.90
2017-09-14T16:54:27.469Z,94.90
2017-09-14T16:56:57.394Z,95.20
2017-09-14T16:59:26.270Z,95.20
2017-09-14T17:01:56.137Z,95.00
2017-09-14T17:04:25.350Z,95.00
2017-09-14T17:06:55.270Z,95.40
2017-09-14T17:09:25.514Z,95.40
2017-09-14T17:11:54.517Z,95.10
2017-09-14T17:14:24.281Z,95.30
2017-09-14T17:16:53.595Z,95.30
2017-09-14T17:19:22.707Z,95.10
2017-09-14T17:21:52.559Z,95.50
2017-09-14T17:24:22.109Z,95.50
2017-09-14T17:26:51.066Z,95.70
2017-09-14T17:29:20.163Z,95.70
2017-09-14T17:31:49.099Z,95.60
2017-09-14T17:34:19.118Z,95.50
2017-09-14T17:36:49.170Z,95.40
2017-09-14T17:39:18.273Z,95.40
2017-09-14T17:41:47.590Z,95.20
2017-09-14T17:44:17.425Z,95.70
2017-09-14T17:46:47.836Z,95.60
2017-09-14T17:49:16.962Z,95.60
2017-09-14T17:51:46.607Z,95.40
2017-09-14T17:54:15.589Z,95.40
2017-09-14T17:56:44.620Z,95.50
2017-09-14T17:59:14.042Z,95.50
2017-09-14T18:01:43.062Z,95.60
2017-09-14T18:04:12.150Z,95.80
2017-09-14T18:06:42.433Z,95.80
2017-09-14T18:09:12.061Z,95.80
2017-09-14T18:11:41.823Z,95.70
2017-09-14T18:14:10.730Z,95.70
2017-09-14T18:16:40.146Z,95.60
2017-09-14T18:19:09.915Z,95.20
2017-09-14T18:21:39.224Z,95.60
2017-09-14T18:24:08.664Z,95.70
2017-09-14T18:26:39.475Z,95.80
2017-09-14T18:29:08.877Z,95.80
2017-09-14T18:31:37.920Z,95.90
2017-09-14T18:34:07.249Z,96.20
2017-09-14T18:36:36.265Z,96.10
2017-09-14T18:39:06.494Z,96.10
2017-09-14T18:41:35.462Z,96.30
2017-09-14T18:44:04.408Z,96.40
2017-09-14T18:46:37.505Z,96.40
2017-09-14T18:49:06.756Z,96.40
2017-09-14T18:51:36.365Z,96.10
2017-09-14T18:54:07.409Z,96.10
2017-09-14T18:56:36.376Z,96.30
2017-09-14T18:59:06.030Z,96.20
2017-09-14T19:02:35.825Z,96.20
2017-09-14T19:05:04.758Z,96.80
2017-09-14T19:07:33.876Z,96.40
2017-09-14T19:10:02.985Z,96.40
2017-09-14T19:12:32.142Z,96.50
2017-09-14T19:15:01.056Z,96.40
2017-09-14T19:17:30.353Z,96.40
2017-09-14T19:19:59.270Z,96.60
2017-09-14T19:22:28.203Z,96.80
2017-09-14T19:24:57.839Z,96.80
2017-09-14T19:27:27.221Z,96.80
2017-09-14T19:29:56.488Z,96.40
2017-09-14T19:32:26.381Z,96.40
2017-09-14T19:34:55.612Z,96.40
2017-09-14T19:37:25.687Z,96.70
2017-09-14T19:39:54.980Z,96.70
2017-09-14T19:42:24.154Z,96.80
2017-09-14T19:44:54.985Z,96.60
2017-09-14T19:47:24.196Z,96.50
2017-09-14T19:49:53.337Z,96.60
2017-09-14T19:52:23.111Z,96.60
2017-09-14T19:54:52.171Z,96.60
2017-09-14T19:57:27.841Z,96.60
2017-09-14T19:59:57.935Z,96.70
2017-09-14T20:02:27.736Z,96.60
2017-09-14T20:04:56.919Z,96.40
2017-09-14T20:07:28.375Z,96.60
2017-09-14T20:10:14.845Z,96.60
2017-09-14T20:12:46.297Z,96.70
2017-09-14T20:15:20.246Z,96.50
2017-09-14T20:17:50.224Z,96.60
2017-09-14T20:20:21.328Z,96.50
2017-09-14T20:22:50.596Z,96.30
2017-09-14T20:25:22.089Z,96.30
2017-09-14T20:27:52.022Z,96.00
2017-09-14T20:30:22.469Z,96.30
2017-09-14T20:32:52.254Z,96.00
2017-09-14T20:35:21.188Z,96.00
2017-09-14T20:37:50.437Z,96.00
2017-09-14T20:40:20.197Z,96.10
2017-09-14T20:42:49.902Z,96.00
2017-09-14T20:45:19.649Z,96.00
2017-09-14T20:47:48.464Z,96.00
2017-09-14T20:50:17.655Z,95.70
2017-09-14T20:52:46.746Z,96.00
2017-09-14T20:55:15.838Z,95.80
2017-09-14T20:57:44.728Z,95.70
2017-09-14T21:00:14.008Z,95.90
2017-09-14T21:02:43.203Z,95.50
2017-09-14T21:05:12.215Z,95.60
2017-09-14T21:07:41.216Z,95.50
2017-09-14T21:10:10.447Z,95.40
2017-09-14T21:12:40.552Z,95.20
2017-09-14T21:15:10.261Z,95.50
2017-09-14T21:17:39.225Z,95.50
2017-09-14T21:20:08.483Z,95.40
2017-09-14T21:22:37.531Z,95.20
2017-09-14T21:25:06.619Z,94.90
2017-09-14T21:27:35.586Z,94.90
2017-09-14T21:30:04.859Z,95.00
2017-09-14T21:32:33.758Z,95.00
2017-09-14T21:35:02.722Z,95.30
2017-09-14T21:37:32.403Z,95.10
2017-09-14T21:40:01.522Z,95.10
2017-09-14T21:42:31.439Z,95.10
2017-09-14T21:45:01.190Z,95.10
2017-09-14T21:47:30.134Z,95.10
2017-09-14T21:49:59.837Z,95.50
2017-09-14T21:52:29.626Z,95.30
2017-09-14T21:54:59.692Z,95.10
2017-09-14T21:57:28.972Z,95.10
2017-09-14T21:59:58.749Z,95.30
2017-09-14T22:02:27.777Z,95.30
2017-09-14T22:04:56.853Z,95.40
2017-09-14T22:07:26.597Z,95.50
2017-09-14T22:09:55.405Z,95.50
2017-09-14T22:12:24.447Z,95.40
2017-09-14T22:14:54.001Z,95.40
2017-09-14T22:17:22.868Z,95.40
2017-09-14T22:19:51.747Z,95.60
2017-09-14T22:22:20.829Z,95.80
2017-09-14T22:24:50.050Z,95.50
2017-09-14T22:27:19.936Z,95.70
2017-09-14T22:29:49.059Z,95.70
2017-09-14T22:32:18.226Z,95.60
2017-09-14T22:34:48.228Z,95.50
2017-09-14T22:37:17.438Z,95.50
2017-09-14T22:39:47.137Z,95.70
2017-09-14T22:42:16.869Z,95.50
2017-09-14T22:44:46.873Z,95.50
2017-09-14T22:47:16.525Z,95.50
2017-09-14T22:49:45.442Z,95.50
2017-09-14T22:52:14.440Z,95.60
2017-09-14T22:54:43.337Z,95.60
2017-09-14T22:57:13.274Z,95.40
2017-09-14T22:59:43.102Z,95.20
2017-09-14T23:02:12.235Z,95.20
2017-09-14T23:04:41.184Z,95.10
2017-09-14T23:07:10.379Z,95.20
2017-09-14T23:09:39.296Z,95.20
2017-09-14T23:12:08.233Z,95.50
2017-09-14T23:14:38.116Z,95.10
2017-09-14T23:17:07.022Z,95.10
2017-09-14T23:19:36.336Z,95.40
2017-09-14T23:22:06.801Z,95.70
2017-09-14T23:24:35.890Z,95.70
2017-09-14T23:27:05.199Z,95.20
2017-09-14T23:29:34.376Z,95.40
2017-09-14T23:32:03.430Z,95.50
2017-09-14T23:34:33.332Z,94.90
2017-09-14T23:37:02.310Z,94.90
2017-09-14T23:39:31.700Z,94.80
2017-09-14T23:42:01.037Z,94.90
2017-09-14T23:44:30.258Z,94.70
2017-09-14T23:47:00.116Z,94.10
2017-09-14T23:49:29.289Z,94.10
2017-09-14T23:51:58.774Z,94.40
2017-09-14T23:54:27.622Z,94.40
2017-09-14T23:56:56.812Z,94.20
2017-09-14T23:59:26.127Z,94.40
